Time;durP1;ratioP1;P1;durP2;ratioP2;P2;SDS_P1;SDS_P2;PMS_P1;PMS_P2;Temp;Humidity;BMP_temperature;BMP_pressure;BME280_temperature;BME280_humidity;BME280_pressure;Samples;Min_cycle;Max_cycle;Signal;HPM_P1;HPM_P2
2023/10/24 00:02:04;;;;;;;14.33;9.20;;;12.00;1.00;;;;;;5128028;27;20221;-77
2023/10/24 00:04:31;;;;;;;12.88;8.40;;;12.00;1.00;;;;;;5129411;27;20205;-78
2023/10/24 00:06:58;;;;;;;14.17;9.43;;;12.00;1.00;;;;;;5133812;27;20198;-78
2023/10/24 00:09:25;;;;;;;11.90;8.75;;;11.90;1.00;;;;;;5134429;27;20200;-77
2023/10/24 00:11:52;;;;;;;12.30;9.20;;;11.90;1.00;;;;;;5123043;27;20265;-78
2023/10/24 00:14:20;;;;;;;13.00;9.17;;;11.90;1.00;;;;;;5123272;27;20632;-77
2023/10/24 00:16:47;;;;;;;14.93;9.10;;;12.10;1.00;;;;;;5117947;28;20217;-78
2023/10/24 00:19:13;;;;;;;15.10;9.43;;;11.90;1.00;;;;;;5134649;27;20236;-78
2023/10/24 00:21:40;;;;;;;20.67;9.33;;;11.90;1.00;;;;;;5119556;28;20224;-77
2023/10/24 00:24:08;;;;;;;13.43;8.87;;;11.90;1.00;;;;;;5127576;27;20671;-77
2023/10/24 00:26:35;;;;;;;12.80;8.83;;;12.00;1.00;;;;;;5125379;27;20629;-77
2023/10/24 00:29:01;;;;;;;12.53;8.43;;;12.00;1.00;;;;;;5131990;27;20685;-78
2023/10/24 00:31:29;;;;;;;11.27;8.37;;;11.90;1.00;;;;;;5135527;27;20216;-77
2023/10/24 00:33:56;;;;;;;14.87;9.23;;;11.90;1.00;;;;;;5136055;27;20204;-78
2023/10/24 00:36:23;;;;;;;14.73;9.13;;;11.90;1.00;;;;;;5135628;27;20219;-77
2023/10/24 00:38:50;;;;;;;13.33;9.70;;;11.90;1.00;;;;;;5136775;27;20210;-77
2023/10/24 00:41:16;;;;;;;14.33;9.83;;;11.90;1.00;;;;;;5125939;27;20507;-79
2023/10/24 00:43:43;;;;;;;12.67;9.80;;;11.90;1.00;;;;;;5131927;27;20196;-78
2023/10/24 00:46:11;;;;;;;14.77;10.13;;;11.90;1.00;;;;;;5119486;27;20703;-79
2023/10/24 00:48:40;;;;;;;13.23;9.40;;;11.90;1.00;;;;;;5123731;27;20206;-79
2023/10/24 00:51:06;;;;;;;13.43;9.40;;;11.90;1.00;;;;;;5123928;27;20252;-78
2023/10/24 00:53:33;;;;;;;22.33;10.27;;;11.90;1.00;;;;;;5118722;28;20219;-77
2023/10/24 00:56:00;;;;;;;14.93;10.37;;;11.90;1.00;;;;;;5118861;28;20221;-78
2023/10/24 00:58:28;;;;;;;17.13;10.40;;;11.90;1.00;;;;;;5116951;27;20625;-78
2023/10/24 01:00:56;;;;;;;16.60;10.47;;;11.90;1.00;;;;;;5118071;28;20229;-78
2023/10/24 01:03:23;;;;;;;15.50;9.63;;;11.90;1.00;;;;;;5119844;28;20580;-77
2023/10/24 01:05:51;;;;;;;14.53;9.20;;;11.90;1.00;;;;;;5119641;27;20192;-79
2023/10/24 01:08:18;;;;;;;17.50;10.23;;;11.90;1.00;;;;;;5121965;27;20203;-77
2023/10/24 01:10:45;;;;;;;15.03;9.17;;;11.90;1.00;;;;;;5135672;27;20230;-78
2023/10/24 01:13:12;;;;;;;12.33;8.63;;;11.90;1.00;;;;;;5126141;27;20273;-77
2023/10/24 01:15:38;;;;;;;14.47;9.63;;;11.90;1.00;;;;;;5124388;27;20695;-77
2023/10/24 01:18:06;;;;;;;13.67;9.23;;;11.90;1.00;;;;;;5125451;27;20208;-77
2023/10/24 01:20:33;;;;;;;14.93;8.77;;;11.90;1.00;;;;;;5125126;27;20221;-78
2023/10/24 01:23:01;;;;;;;14.73;9.30;;;11.90;1.00;;;;;;5119411;28;20205;-78
2023/10/24 01:25:30;;;;;;;12.17;8.97;;;11.90;1.00;;;;;;5118863;27;20215;-78
2023/10/24 01:27:56;;;;;;;13.30;8.97;;;11.80;11.00;;;;;;5118863;28;20229;-79
2023/10/24 01:30:23;;;;;;;12.93;8.30;;;11.90;1.00;;;;;;5123462;27;20201;-79
2023/10/24 01:32:50;;;;;;;13.27;7.83;;;11.90;1.00;;;;;;5127287;27;20204;-79
2023/10/24 01:35:17;;;;;;;16.07;8.10;;;11.90;1.00;;;;;;5118727;27;20580;-78
2023/10/24 01:37:44;;;;;;;13.33;8.67;;;11.90;1.00;;;;;;5132200;27;20211;-79
2023/10/24 01:40:12;;;;;;;11.33;8.00;;;11.80;1.00;;;;;;5126478;27;20205;-80
2023/10/24 01:42:39;;;;;;;12.90;8.23;;;11.90;71.40;;;;;;5118033;27;20208;-79
2023/10/24 01:45:07;;;;;;;12.07;8.30;;;11.90;99.90;;;;;;5129143;27;20248;-78
2023/10/24 01:47:34;;;;;;;10.37;8.50;;;11.80;99.90;;;;;;5123571;27;20215;-77
2023/10/24 01:50:02;;;;;;;13.20;8.70;;;11.80;99.90;;;;;;5118706;28;20212;-78
2023/10/24 01:52:29;;;;;;;13.60;8.80;;;11.70;99.90;;;;;;5121233;27;20776;-78
2023/10/24 01:54:56;;;;;;;12.23;7.97;;;11.80;99.90;;;;;;5119106;28;20227;-78
2023/10/24 01:57:24;;;;;;;14.23;9.20;;;11.80;99.90;;;;;;5118640;27;20221;-77
2023/10/24 01:59:51;;;;;;;11.90;9.17;;;11.70;99.90;;;;;;5124023;27;20206;-79
2023/10/24 02:02:17;;;;;;;15.33;8.23;;;11.60;99.90;;;;;;5130202;27;20604;-78
2023/10/24 02:04:44;;;;;;;12.50;8.17;;;11.70;99.90;;;;;;5132967;27;20685;-78
2023/10/24 02:07:11;;;;;;;10.37;7.93;;;11.70;99.90;;;;;;5125210;28;20197;-78
2023/10/24 02:09:38;;;;;;;12.50;8.57;;;11.70;99.90;;;;;;5125002;27;20585;-78
2023/10/24 02:12:05;;;;;;;11.47;8.87;;;11.70;99.90;;;;;;5127263;27;20228;-78
2023/10/24 02:14:33;;;;;;;10.87;8.30;;;11.60;99.90;;;;;;5135260;27;20208;-78
2023/10/24 02:17:00;;;;;;;14.67;9.30;;;11.60;99.90;;;;;;5134321;27;20223;-79
2023/10/24 02:19:27;;;;;;;12.40;8.67;;;11.50;99.90;;;;;;5133331;27;20221;-79
2023/10/24 02:21:54;;;;;;;12.57;8.47;;;11.50;99.90;;;;;;5122872;27;20247;-79
2023/10/24 02:24:20;;;;;;;13.47;8.80;;;11.50;99.90;;;;;;5121716;27;20203;-79
2023/10/24 02:26:48;;;;;;;12.90;8.90;;;11.50;99.90;;;;;;5120629;27;20223;-77
2023/10/24 02:29:15;;;;;;;13.77;8.20;;;11.60;99.90;;;;;;5122877;27;20212;-77
2023/10/24 02:31:43;;;;;;;13.67;9.63;;;11.50;99.90;;;;;;5131430;27;20595;-79
2023/10/24 02:34:10;;;;;;;13.47;8.73;;;11.50;99.90;;;;;;5122830;28;20211;-79
2023/10/24 02:36:37;;;;;;;11.47;8.27;;;11.50;99.90;;;;;;5130961;27;20216;-78
2023/10/24 02:39:04;;;;;;;14.13;9.03;;;11.50;99.90;;;;;;5134044;27;20203;-78
2023/10/24 02:41:30;;;;;;;13.00;8.37;;;11.50;99.90;;;;;;5127956;27;20225;-78
2023/10/24 02:43:57;;;;;;;14.20;8.67;;;11.50;99.90;;;;;;5121747;27;20586;-77
2023/10/24 02:46:24;;;;;;;14.07;8.47;;;11.50;99.90;;;;;;5127835;27;20665;-77
2023/10/24 02:48:52;;;;;;;13.10;8.90;;;11.50;99.90;;;;;;5124391;27;20207;-77
2023/10/24 02:51:20;;;;;;;13.20;9.47;;;11.50;99.90;;;;;;5120553;28;20221;-77
2023/10/24 02:53:47;;;;;;;12.40;9.10;;;11.40;99.90;;;;;;5125686;27;20193;-78
2023/10/24 02:56:14;;;;;;;15.37;9.50;;;11.40;99.90;;;;;;5125807;27;20196;-78
2023/10/24 02:58:40;;;;;;;15.47;9.30;;;11.30;99.90;;;;;;5128247;27;20203;-78
2023/10/24 03:01:07;;;;;;;15.93;10.40;;;11.10;99.90;;;;;;5122526;27;20316;-79
2023/10/24 03:03:34;;;;;;;16.47;10.93;;;11.00;99.90;;;;;;5132341;27;20672;-79
2023/10/24 03:06:02;;;;;;;15.63;10.20;;;11.00;99.90;;;;;;5127462;27;20197;-80
2023/10/24 03:08:29;;;;;;;14.47;10.40;;;11.00;99.90;;;;;;5132767;27;20194;-79
2023/10/24 03:10:56;;;;;;;16.47;9.73;;;11.00;99.90;;;;;;5132095;27;20212;-79
2023/10/24 03:13:22;;;;;;;16.73;10.10;;;11.00;99.90;;;;;;5125356;27;20203;-78
2023/10/24 03:15:49;;;;;;;14.57;9.90;;;11.00;99.90;;;;;;5120737;28;20204;-79
2023/10/24 03:18:16;;;;;;;14.00;9.90;;;11.00;99.90;;;;;;5125597;27;20223;-80
2023/10/24 03:20:43;;;;;;;14.53;8.83;;;11.00;99.90;;;;;;5120372;28;20223;-80
2023/10/24 03:23:11;;;;;;;14.50;10.40;;;11.00;99.90;;;;;;5120516;27;20217;-77
2023/10/24 03:25:42;;;;;;;15.60;9.40;;;11.00;99.90;;;;;;5128782;27;20211;-78
2023/10/24 03:28:09;;;;;;;14.33;9.00;;;11.00;99.90;;;;;;5131672;27;20196;-78
2023/10/24 03:30:35;;;;;;;17.00;9.73;;;10.90;99.90;;;;;;5127125;27;20641;-79
2023/10/24 03:33:02;;;;;;;11.47;8.40;;;11.00;99.90;;;;;;5131254;27;20200;-78
2023/10/24 03:35:30;;;;;;;11.70;8.23;;;11.00;99.90;;;;;;5121483;27;20523;-79
2023/10/24 03:37:56;;;;;;;14.30;8.87;;;11.00;99.90;;;;;;5121263;28;20244;-78
2023/10/24 03:40:26;;;;;;;12.00;8.10;;;11.00;99.90;;;;;;5125368;27;20197;-78
2023/10/24 03:42:53;;;;;;;14.57;7.70;;;11.00;99.90;;;;;;5125006;27;20220;-79
2023/10/24 03:45:20;;;;;;;12.80;7.23;;;11.00;99.90;;;;;;5125452;27;20205;-78
2023/10/24 03:47:49;;;;;;;11.57;7.43;;;11.10;99.90;;;;;;5130148;27;20189;-80
2023/10/24 03:50:16;;;;;;;13.30;7.40;;;11.10;99.90;;;;;;5117142;28;20209;-79
2023/10/24 03:52:43;;;;;;;12.00;6.97;;;11.00;99.90;;;;;;5132772;27;20202;-78
2023/10/24 03:55:11;;;;;;;9.13;7.03;;;11.00;99.90;;;;;;5129027;27;20257;-79
2023/10/24 03:57:39;;;;;;;10.17;6.73;;;10.90;99.90;;;;;;5124415;27;20213;-80
2023/10/24 04:00:08;;;;;;;9.47;6.47;;;11.00;99.90;;;;;;5120706;28;20649;-79
2023/10/24 04:02:35;;;;;;;10.50;6.83;;;11.00;99.90;;;;;;5118083;27;20580;-78
2023/10/24 04:05:03;;;;;;;10.53;6.60;;;10.90;99.90;;;;;;5119934;28;20224;-78
2023/10/24 04:07:30;;;;;;;11.93;7.03;;;10.90;99.90;;;;;;5121388;28;20197;-78
2023/10/24 04:09:57;;;;;;;10.43;7.00;;;10.90;99.90;;;;;;5120984;28;20197;-78
2023/10/24 04:12:24;;;;;;;9.40;7.00;;;10.80;99.90;;;;;;5119980;27;20266;-78
2023/10/24 04:14:52;;;;;;;12.00;7.77;;;10.70;99.90;;;;;;5124408;27;20562;-78
2023/10/24 04:17:19;;;;;;;11.13;7.50;;;10.70;99.90;;;;;;5120938;28;20227;-78
2023/10/24 04:19:46;;;;;;;9.73;7.20;;;10.70;99.90;;;;;;5130857;27;20196;-79
2023/10/24 04:22:13;;;;;;;9.73;7.43;;;10.80;99.90;;;;;;5125158;27;20216;-78
2023/10/24 04:24:40;;;;;;;11.57;7.13;;;10.80;99.90;;;;;;5125244;27;20219;-79
2023/10/24 04:27:08;;;;;;;11.93;7.37;;;10.80;99.90;;;;;;5125031;27;20203;-78
2023/10/24 04:29:35;;;;;;;9.77;7.20;;;10.80;99.90;;;;;;5129829;27;20201;-79
2023/10/24 04:32:05;;;;;;;8.13;6.30;;;10.90;99.90;;;;;;5124108;27;20219;-81
2023/10/24 04:34:32;;;;;;;15.20;6.80;;;10.90;99.90;;;;;;5118287;27;20202;-78
2023/10/24 04:36:58;;;;;;;11.13;6.63;;;10.80;99.90;;;;;;5118856;27;20220;-78
2023/10/24 04:39:25;;;;;;;9.60;6.90;;;10.90;99.90;;;;;;5123905;27;20200;-79
2023/10/24 04:41:52;;;;;;;11.20;7.57;;;10.90;99.90;;;;;;5126944;27;20223;-79
2023/10/24 04:44:19;;;;;;;10.37;6.53;;;11.00;99.90;;;;;;5121335;27;20686;-78
2023/10/24 04:46:46;;;;;;;13.93;8.23;;;11.00;99.90;;;;;;5129624;27;20287;-79
2023/10/24 04:49:15;;;;;;;12.67;7.80;;;11.00;99.90;;;;;;5127796;27;20193;-78
2023/10/24 04:51:42;;;;;;;13.93;7.30;;;11.00;99.90;;;;;;5117824;27;20229;-78
2023/10/24 04:54:09;;;;;;;10.87;7.87;;;11.00;99.90;;;;;;5120086;27;20209;-79
2023/10/24 04:56:36;;;;;;;11.83;7.80;;;11.00;99.90;;;;;;5114383;27;20258;-79
2023/10/24 04:59:03;;;;;;;10.97;7.40;;;11.00;99.90;;;;;;5121346;28;20227;-79
2023/10/24 05:01:37;;;;;;;10.00;7.60;;;11.10;99.90;;;;;;5114163;27;20222;-78
2023/10/24 05:04:04;;;;;;;10.33;7.40;;;11.10;99.90;;;;;;5126448;27;20687;-78
2023/10/24 05:06:32;;;;;;;11.77;7.27;;;11.10;99.90;;;;;;5126533;27;20483;-79
2023/10/24 05:08:59;;;;;;;10.73;7.17;;;11.10;99.90;;;;;;5124510;27;20279;-77
2023/10/24 05:11:26;;;;;;;9.77;6.93;;;11.10;99.90;;;;;;5125768;27;20213;-78
2023/10/24 05:13:53;;;;;;;16.47;8.30;;;11.00;99.90;;;;;;5122747;27;20242;-78
2023/10/24 05:16:20;;;;;;;11.43;6.30;;;11.00;99.90;;;;;;5123446;27;20197;-79
2023/10/24 05:18:46;;;;;;;10.80;6.63;;;11.00;99.90;;;;;;5127966;27;20221;-79
2023/10/24 05:21:13;;;;;;;10.33;7.10;;;11.00;99.90;;;;;;5121971;27;20224;-79
2023/10/24 05:23:41;;;;;;;11.73;6.43;;;11.00;99.90;;;;;;5120402;27;20212;-78
2023/10/24 05:26:08;;;;;;;10.20;6.27;;;11.00;99.90;;;;;;5118882;27;20593;-78
2023/10/24 05:28:35;;;;;;;10.13;6.03;;;10.90;99.90;;;;;;5120870;27;20201;-78
2023/10/24 05:31:07;;;;;;;9.20;6.27;;;10.90;99.90;;;;;;5115770;27;20216;-80
2023/10/24 05:33:38;;;;;;;12.83;6.70;;;10.90;99.90;;;;;;5119953;28;20213;-79
2023/10/24 05:36:09;;;;;;;10.03;6.17;;;11.00;99.90;;;;;;5117561;27;20200;-79
2023/10/24 05:38:36;;;;;;;10.63;6.40;;;10.90;99.90;;;;;;5119315;27;20224;-79
2023/10/24 05:41:04;;;;;;;9.87;6.47;;;11.00;99.90;;;;;;5117874;27;20232;-79
2023/10/24 05:43:31;;;;;;;9.90;6.37;;;11.00;99.90;;;;;;5115332;27;20210;-80
2023/10/24 05:45:58;;;;;;;9.37;7.13;;;11.00;99.90;;;;;;5113854;27;20292;-81
2023/10/24 05:48:25;;;;;;;9.07;6.43;;;11.00;99.90;;;;;;5119971;27;20595;-80
2023/10/24 05:50:52;;;;;;;9.23;6.47;;;11.00;99.90;;;;;;5123354;27;20225;-79
2023/10/24 05:53:19;;;;;;;15.97;6.00;;;11.00;99.90;;;;;;5123180;27;20208;-79
2023/10/24 05:55:45;;;;;;;8.00;5.60;;;11.00;99.90;;;;;;5119995;27;20204;-79
2023/10/24 05:58:13;;;;;;;10.53;6.63;;;11.00;99.90;;;;;;5118225;28;20217;-79
2023/10/24 06:00:40;;;;;;;9.00;6.20;;;10.90;99.90;;;;;;5117807;27;20227;-80
2023/10/24 06:03:07;;;;;;;9.13;5.73;;;11.00;99.90;;;;;;5118049;27;20224;-79
2023/10/24 06:05:34;;;;;;;11.33;5.40;;;11.00;99.90;;;;;;5116810;27;20205;-80
2023/10/24 06:08:00;;;;;;;9.10;5.03;;;11.10;99.90;;;;;;5116553;27;20287;-81
2023/10/24 06:10:27;;;;;;;8.47;4.80;;;11.10;99.90;;;;;;5119172;28;20199;-79
2023/10/24 06:12:54;;;;;;;8.23;4.90;;;11.00;99.90;;;;;;5121732;27;20197;-79
2023/10/24 06:15:22;;;;;;;7.73;4.53;;;11.10;99.90;;;;;;5119094;27;20584;-80
2023/10/24 06:17:49;;;;;;;6.27;4.53;;;11.00;99.90;;;;;;5120239;28;20227;-80
2023/10/24 06:20:16;;;;;;;9.27;4.33;;;11.00;99.90;;;;;;5108942;27;20208;-80
2023/10/24 06:22:43;;;;;;;7.17;4.57;;;11.00;99.90;;;;;;5117278;27;20203;-80
2023/10/24 06:25:11;;;;;;;7.40;4.37;;;11.00;99.90;;;;;;5122074;27;20209;-79
2023/10/24 06:27:38;;;;;;;6.83;4.10;;;11.00;99.90;;;;;;5114466;28;20254;-79
2023/10/24 06:30:06;;;;;;;6.90;4.73;;;11.10;99.90;;;;;;5117411;27;20201;-79
2023/10/24 06:32:35;;;;;;;7.27;4.50;;;11.10;99.90;;;;;;5118341;28;20219;-78
2023/10/24 06:35:02;;;;;;;7.30;4.67;;;11.20;99.90;;;;;;5118040;28;20224;-79
2023/10/24 06:37:28;;;;;;;4.97;3.77;;;11.20;99.90;;;;;;5120262;27;20201;-79
2023/10/24 06:39:55;;;;;;;6.23;4.17;;;11.20;99.90;;;;;;5116693;28;20204;-79
2023/10/24 06:42:24;;;;;;;8.00;4.47;;;11.20;99.90;;;;;;5110879;27;20225;-80
2023/10/24 06:44:51;;;;;;;8.53;3.87;;;11.20;99.90;;;;;;5118123;27;20205;-78
2023/10/24 06:47:18;;;;;;;8.27;4.00;;;11.30;99.90;;;;;;5117846;27;20675;-79
2023/10/24 06:49:46;;;;;;;5.13;4.00;;;11.30;99.90;;;;;;5119141;27;20660;-79
2023/10/24 06:52:13;;;;;;;4.97;3.63;;;11.40;99.90;;;;;;5118680;27;20706;-79
2023/10/24 06:54:39;;;;;;;10.40;4.63;;;11.40;99.90;;;;;;5119311;27;20569;-79
2023/10/24 06:57:06;;;;;;;4.23;3.50;;;11.40;99.90;;;;;;5118037;27;20208;-79
2023/10/24 06:59:33;;;;;;;6.93;3.80;;;11.60;99.90;;;;;;5122767;27;20315;-78
2023/10/24 07:02:00;;;;;;;3.70;3.10;;;11.60;99.90;;;;;;5124227;27;20225;-78
2023/10/24 07:04:26;;;;;;;4.83;3.20;;;11.80;99.90;;;;;;5124378;27;20713;-80
2023/10/24 07:06:55;;;;;;;6.97;2.90;;;11.80;99.90;;;;;;5120979;27;20682;-80
2023/10/24 07:09:21;;;;;;;4.17;2.90;;;12.00;99.90;;;;;;5121619;27;20233;-80
2023/10/24 07:11:48;;;;;;;7.33;3.17;;;12.10;99.90;;;;;;5122474;27;20227;-80
2023/10/24 07:14:15;;;;;;;4.73;2.50;;;12.10;99.90;;;;;;5115197;27;20197;-80
2023/10/24 07:16:42;;;;;;;3.67;2.60;;;12.30;99.90;;;;;;5122893;27;20205;-80
2023/10/24 07:19:08;;;;;;;4.83;2.70;;;12.30;99.90;;;;;;5123569;27;20687;-80
2023/10/24 07:21:35;;;;;;;3.97;2.63;;;12.40;9.30;;;;;;5122348;27;20247;-80
2023/10/24 07:24:04;;;;;;;5.43;2.87;;;12.50;1.00;;;;;;5122682;27;20203;-79
2023/10/24 07:26:31;;;;;;;5.60;2.63;;;12.50;1.00;;;;;;5120376;27;20207;-79
2023/10/24 07:28:58;;;;;;;3.27;2.60;;;12.50;1.00;;;;;;5121682;27;20205;-78
2023/10/24 07:31:25;;;;;;;7.00;2.50;;;12.60;1.00;;;;;;5120514;28;20223;-80
2023/10/24 07:33:51;;;;;;;4.20;2.67;;;12.80;99.90;;;;;;5112402;27;20205;-78
2023/10/24 07:36:18;;;;;;;5.77;2.90;;;12.70;99.90;;;;;;5122729;27;20288;-80
2023/10/24 07:38:45;;;;;;;3.70;2.53;;;12.80;1.00;;;;;;5120765;27;20707;-80
2023/10/24 07:41:13;;;;;;;4.37;2.50;;;12.80;1.00;;;;;;5119045;28;20227;-80
2023/10/24 07:43:40;;;;;;;5.87;2.47;;;12.90;1.00;;;;;;5119190;27;20272;-79
2023/10/24 07:46:07;;;;;;;3.97;2.40;;;13.00;1.00;;;;;;5117054;28;20207;-80
2023/10/24 07:48:33;;;;;;;4.90;2.70;;;12.90;1.00;;;;;;5117608;28;20197;-80
2023/10/24 07:51:02;;;;;;;5.37;2.77;;;12.90;99.90;;;;;;5111074;27;20237;-79
2023/10/24 07:53:29;;;;;;;4.33;2.40;;;12.90;1.00;;;;;;5117427;27;20221;-80
2023/10/24 07:55:55;;;;;;;5.60;2.60;;;12.90;1.00;;;;;;5122476;27;20215;-81
2023/10/24 07:58:23;;;;;;;4.77;2.30;;;13.00;1.00;;;;;;5117869;27;20242;-79
2023/10/24 08:00:50;;;;;;;5.57;2.50;;;13.00;99.90;;;;;;5119297;27;20221;-79
2023/10/24 08:03:18;;;;;;;5.13;2.50;;;13.00;99.90;;;;;;5118130;27;20193;-79
2023/10/24 08:05:45;;;;;;;3.90;2.70;;;13.10;1.00;;;;;;5118104;27;20243;-79
2023/10/24 08:08:12;;;;;;;6.43;3.40;;;13.00;1.00;;;;;;5117472;27;20203;-80
2023/10/24 08:10:39;;;;;;;4.87;2.50;;;13.20;99.90;;;;;;5117425;27;20232;-80
2023/10/24 08:13:06;;;;;;;3.53;2.60;;;13.20;1.00;;;;;;5116420;27;20310;-79
2023/10/24 08:15:35;;;;;;;4.60;2.70;;;13.20;1.00;;;;;;5116957;27;20202;-79
2023/10/24 08:18:01;;;;;;;5.77;2.70;;;13.30;1.00;;;;;;5112762;27;20212;-80
2023/10/24 08:20:28;;;;;;;4.43;2.70;;;13.30;99.90;;;;;;5119182;27;20259;-79
2023/10/24 08:22:55;;;;;;;5.67;2.30;;;13.30;99.90;;;;;;5121157;27;20291;-80
2023/10/24 08:25:22;;;;;;;4.30;2.60;;;13.30;99.90;;;;;;5119428;27;20284;-79
2023/10/24 08:27:48;;;;;;;4.07;2.55;;;13.20;99.90;;;;;;5119622;27;20197;-79
2023/10/24 08:30:15;;;;;;;6.13;2.70;;;13.30;1.00;;;;;;5112702;27;20291;-79
2023/10/24 08:32:43;;;;;;;7.30;3.37;;;13.40;99.90;;;;;;5119816;27;20593;-80
2023/10/24 08:35:10;;;;;;;5.20;2.80;;;13.40;1.00;;;;;;5118388;27;20211;-81
2023/10/24 08:37:37;;;;;;;3.88;2.50;;;13.40;1.00;;;;;;5110033;27;20204;-80
2023/10/24 08:40:05;;;;;;;2.45;2.25;;;13.40;1.00;;;;;;5116527;27;20220;-80
2023/10/24 08:42:33;;;;;;;4.75;3.15;;;13.50;99.90;;;;;;5112764;27;20743;-80
2023/10/24 08:45:00;;;;;;;5.25;2.53;;;13.50;1.00;;;;;;5108409;27;20210;-80
2023/10/24 08:47:28;;;;;;;4.43;2.73;;;13.60;1.00;;;;;;5117360;28;20201;-81
2023/10/24 08:49:57;;;;;;;4.20;2.80;;;13.60;1.00;;;;;;5117773;27;20204;-81
2023/10/24 08:52:23;;;;;;;3.53;2.58;;;13.60;99.90;;;;;;5103878;27;20224;-80
2023/10/24 08:54:51;;;;;;;9.40;4.23;;;13.60;99.90;;;;;;5117926;27;20708;-79
2023/10/24 08:57:25;;;;;;;3.92;2.45;;;13.60;99.90;;;;;;5114486;27;20202;-81
2023/10/24 08:59:53;;;;;;;25.58;6.90;;;13.70;1.00;;;;;;5114815;27;20227;-79
2023/10/24 09:02:21;;;;;;;3.13;2.50;;;13.70;99.90;;;;;;5117367;27;20221;-79
2023/10/24 09:04:48;;;;;;;4.47;2.50;;;13.70;99.90;;;;;;5118149;27;20208;-79
2023/10/24 09:07:16;;;;;;;7.00;2.60;;;13.70;1.00;;;;;;5112414;27;20201;-78
2023/10/24 09:09:43;;;;;;;4.15;2.92;;;13.70;1.00;;;;;;5116601;28;20197;-79
2023/10/24 09:12:14;;;;;;;4.68;2.60;;;13.70;1.00;;;;;;5115741;27;20243;-79
2023/10/24 09:14:45;;;;;;;3.42;2.92;;;13.80;1.00;;;;;;5117146;28;20232;-80
2023/10/24 09:17:14;;;;;;;4.45;2.63;;;13.80;99.90;;;;;;5117065;27;20556;-79
2023/10/24 09:19:41;;;;;;;4.95;2.80;;;13.80;12.40;;;;;;5115144;28;20311;-79
2023/10/24 09:22:08;;;;;;;4.13;2.67;;;13.90;99.90;;;;;;5117044;27;20225;-79
2023/10/24 09:24:36;;;;;;;7.63;2.83;;;13.90;1.00;;;;;;5117343;27;20276;-79
2023/10/24 09:27:04;;;;;;;5.77;3.00;;;13.90;1.00;;;;;;5116821;27;20204;-80
2023/10/24 09:29:32;;;;;;;3.70;2.55;;;14.00;1.00;;;;;;5131180;27;20206;-81
2023/10/24 09:31:59;;;;;;;4.72;2.72;;;14.00;1.00;;;;;;5121654;27;20231;-80
2023/10/24 09:34:27;;;;;;;6.22;3.13;;;14.00;1.00;;;;;;5122372;27;20219;-81
2023/10/24 09:36:53;;;;;;;4.72;2.90;;;14.10;1.00;;;;;;5136101;27;20200;-81
2023/10/24 09:39:20;;;;;;;5.35;2.83;;;14.20;1.00;;;;;;5124495;27;20221;-81
2023/10/24 09:41:48;;;;;;;7.28;2.92;;;14.10;1.00;;;;;;5123636;27;20220;-80
2023/10/24 09:44:17;;;;;;;5.60;2.47;;;14.10;1.00;;;;;;5112367;27;20321;-79
2023/10/24 09:46:45;;;;;;;5.13;2.50;;;14.00;1.00;;;;;;5116463;28;20664;-79
2023/10/24 09:49:13;;;;;;;3.13;2.58;;;14.00;1.00;;;;;;5114398;28;20616;-79
2023/10/24 09:51:41;;;;;;;3.42;2.42;;;14.00;1.00;;;;;;5122518;27;20683;-80
2023/10/24 09:54:08;;;;;;;3.47;2.45;;;14.00;1.00;;;;;;5134515;27;20264;-80
2023/10/24 09:56:35;;;;;;;3.10;2.75;;;14.00;1.00;;;;;;5134953;27;20204;-78
2023/10/24 09:59:04;;;;;;;5.13;2.53;;;14.00;99.90;;;;;;5110030;27;20227;-79
2023/10/24 10:01:32;;;;;;;3.28;2.38;;;14.10;99.90;;;;;;5127999;27;20216;-79
2023/10/24 10:04:00;;;;;;;4.53;2.30;;;14.00;1.00;;;;;;5116555;27;20291;-79
2023/10/24 10:06:28;;;;;;;4.93;2.55;;;14.00;99.90;;;;;;5113984;27;20579;-80
2023/10/24 10:08:58;;;;;;;5.32;2.67;;;14.00;1.00;;;;;;5121290;27;20230;-79
2023/10/24 10:11:27;;;;;;;5.25;2.55;;;14.00;1.00;;;;;;5124829;27;20721;-79
2023/10/24 10:13:57;;;;;;;3.65;2.33;;;14.00;1.00;;;;;;5132440;27;20214;-79
2023/10/24 10:16:35;;;;;;;3.92;2.30;;;14.00;1.00;;;;;;5122878;27;20211;-80
2023/10/24 10:19:28;;;;;;;4.82;2.00;;;14.00;99.90;;;;;;5128897;27;20306;-79
2023/10/24 10:22:06;;;;;;;3.38;2.80;;;14.00;1.00;;;;;;5122170;27;20427;-79
2023/10/24 10:25:02;;;;;;;3.40;2.22;;;14.00;1.00;;;;;;5126790;27;20644;-79
2023/10/24 10:27:38;;;;;;;2.38;2.10;;;14.00;99.90;;;;;;5112031;28;20215;-79
2023/10/24 10:30:14;;;;;;;2.58;2.38;;;14.00;99.90;;;;;;5125866;27;20195;-79
2023/10/24 10:32:49;;;;;;;4.25;2.50;;;14.00;99.90;;;;;;5133458;27;20295;-81
2023/10/24 10:35:18;;;;;;;3.35;2.65;;;14.00;99.90;;;;;;5120253;27;20489;-79
2023/10/24 10:38:04;;;;;;;2.70;2.05;;;13.90;99.90;;;;;;5121070;28;20224;-80
2023/10/24 10:40:31;;;;;;;6.40;2.05;;;13.90;1.00;;;;;;5120937;28;20224;-79
2023/10/24 10:42:58;;;;;;;3.20;2.20;;;13.90;1.00;;;;;;5127900;27;20212;-80
2023/10/24 10:45:26;;;;;;;2.33;2.00;;;14.00;1.00;;;;;;5135270;27;20193;-78
2023/10/24 10:47:57;;;;;;;3.53;2.42;;;14.00;1.00;;;;;;5120666;28;20204;-79
2023/10/24 10:50:25;;;;;;;2.78;1.90;;;13.90;1.00;;;;;;5135409;27;20588;-79
2023/10/24 10:53:00;;;;;;;2.75;2.22;;;14.00;1.00;;;;;;5125224;27;20209;-79
2023/10/24 10:55:44;;;;;;;3.33;2.00;;;13.90;1.00;;;;;;5114547;27;20200;-79
2023/10/24 10:58:23;;;;;;;1.90;1.75;;;14.00;1.00;;;;;;5128306;27;20217;-79
2023/10/24 11:01:01;;;;;;;2.63;2.42;;;14.00;1.00;;;;;;5137538;27;20235;-79
2023/10/24 11:03:40;;;;;;;2.97;1.98;;;14.10;1.00;;;;;;5124946;27;20196;-80
2023/10/24 11:06:12;;;;;;;2.10;1.90;;;14.00;1.00;;;;;;5128844;27;20207;-79
2023/10/24 11:08:41;;;;;;;3.40;1.77;;;14.00;1.00;;;;;;5119767;28;20201;-78
2023/10/24 11:11:09;;;;;;;3.35;1.98;;;14.00;1.00;;;;;;5120223;27;20246;-78
2023/10/24 11:13:40;;;;;;;2.92;2.20;;;14.00;99.90;;;;;;5136080;27;20671;-80
2023/10/24 11:16:10;;;;;;;3.03;2.20;;;14.10;99.90;;;;;;5129934;27;20212;-82
2023/10/24 11:18:40;;;;;;;4.20;2.10;;;14.10;99.90;;;;;;5115457;27;20212;-77
2023/10/24 11:21:09;;;;;;;2.42;1.88;;;14.00;2.40;;;;;;5133745;27;20593;-79
2023/10/24 11:23:37;;;;;;;3.28;1.85;;;14.10;99.90;;;;;;5136430;27;20742;-81
2023/10/24 11:26:04;;;;;;;4.27;1.90;;;14.10;99.90;;;;;;5130364;27;20683;-80
2023/10/24 11:28:32;;;;;;;3.72;2.05;;;14.10;99.90;;;;;;5129509;27;20205;-80
2023/10/24 11:30:59;;;;;;;5.25;2.10;;;14.10;1.00;;;;;;5116486;28;20252;-80
2023/10/24 11:33:27;;;;;;;3.88;2.10;;;14.10;1.00;;;;;;5122423;27;20551;-81
2023/10/24 11:35:55;;;;;;;3.65;2.17;;;14.10;56.90;;;;;;5132719;27;20201;-78
2023/10/24 11:38:21;;;;;;;2.05;1.73;;;14.10;99.90;;;;;;5127661;27;20210;-78
2023/10/24 11:40:48;;;;;;;3.75;1.90;;;14.10;99.90;;;;;;5119108;28;20229;-79
2023/10/24 11:43:17;;;;;;;3.38;1.83;;;14.10;99.90;;;;;;5112126;27;20589;-78
2023/10/24 11:45:45;;;;;;;2.05;1.70;;;14.10;99.90;;;;;;5125278;27;20549;-78
2023/10/24 11:48:12;;;;;;;1.95;1.70;;;14.10;99.90;;;;;;5127698;27;20232;-77
2023/10/24 11:50:40;;;;;;;3.25;2.63;;;14.10;99.90;;;;;;5133187;27;20234;-79
2023/10/24 11:53:08;;;;;;;2.70;1.60;;;14.10;1.00;;;;;;5125508;27;20200;-79
2023/10/24 11:55:35;;;;;;;2.28;1.73;;;14.10;99.90;;;;;;5126922;27;20664;-78
2023/10/24 11:58:02;;;;;;;2.17;1.80;;;14.20;99.90;;;;;;5132114;27;20208;-78
2023/10/24 12:00:31;;;;;;;3.42;1.90;;;14.20;1.00;;;;;;5128688;27;20236;-79
2023/10/24 12:03:03;;;;;;;2.20;1.67;;;14.20;99.90;;;;;;5123458;27;20572;-79
2023/10/24 12:05:30;;;;;;;1.90;1.80;;;14.20;99.90;;;;;;5114050;27;20200;-79
2023/10/24 12:07:58;;;;;;;2.30;1.73;;;14.20;99.90;;;;;;5137806;27;20693;-78
2023/10/24 12:10:26;;;;;;;2.85;1.63;;;14.20;1.00;;;;;;5118462;27;23027;-79
2023/10/24 12:12:56;;;;;;;1.95;1.70;;;14.20;1.00;;;;;;5128629;27;20563;-80
2023/10/24 12:15:23;;;;;;;2.95;1.92;;;14.20;1.00;;;;;;5119057;27;20213;-80
2023/10/24 12:17:51;;;;;;;1.83;1.60;;;14.20;1.00;;;;;;5124868;27;20201;-80
2023/10/24 12:20:19;;;;;;;3.17;1.90;;;14.20;1.00;;;;;;5124276;27;20225;-79
2023/10/24 12:22:47;;;;;;;4.25;2.10;;;14.20;99.90;;;;;;5129963;27;20706;-81
2023/10/24 12:25:14;;;;;;;2.92;1.52;;;14.20;1.00;;;;;;5118059;27;20216;-80
2023/10/24 12:27:42;;;;;;;3.90;1.70;;;14.20;99.90;;;;;;5125871;27;20219;-78
2023/10/24 12:30:10;;;;;;;3.60;1.95;;;14.20;51.20;;;;;;5124139;27;20270;-78
2023/10/24 12:32:37;;;;;;;2.55;1.63;;;14.30;99.90;;;;;;5124395;27;20205;-78
2023/10/24 12:35:06;;;;;;;3.47;2.00;;;14.20;1.00;;;;;;5118984;28;20258;-78
2023/10/24 12:37:33;;;;;;;2.97;2.00;;;14.30;1.00;;;;;;5123242;27;20200;-77
2023/10/24 12:40:00;;;;;;;1.77;1.63;;;14.30;1.00;;;;;;5130272;27;20227;-77
2023/10/24 12:42:27;;;;;;;2.80;1.88;;;14.30;1.00;;;;;;5131774;27;20786;-79
2023/10/24 12:44:55;;;;;;;2.88;1.80;;;14.30;1.00;;;;;;5133667;27;20641;-78
2023/10/24 12:47:22;;;;;;;3.03;1.75;;;14.50;1.00;;;;;;5120439;28;20288;-79
2023/10/24 12:49:49;;;;;;;3.15;1.67;;;14.30;1.00;;;;;;5112030;28;20304;-79